createdAt,value
2019-03-12T00:00:15.320Z,0.00
2019-03-12T00:01:25.995Z,0.00
2019-03-12T00:02:36.673Z,0.00
2019-03-12T00:03:47.350Z,0.00
2019-03-12T00:04:58.028Z,0.00
2019-03-12T00:06:08.695Z,0.00
2019-03-12T00:07:19.378Z,0.00
2019-03-12T00:08:30.052Z,0.00
2019-03-12T00:09:40.729Z,0.00
2019-03-12T00:10:51.409Z,0.00
2019-03-12T00:12:02.072Z,0.00
2019-03-12T00:13:12.746Z,0.00
2019-03-12T00:14:23.418Z,0.00
2019-03-12T00:15:34.087Z,0.00
2019-03-12T00:16:44.757Z,0.00
2019-03-12T00:17:55.437Z,0.00
2019-03-12T00:19:06.105Z,0.00
2019-03-12T00:20:16.760Z,0.00
2019-03-12T00:21:27.426Z,0.00
2019-03-12T00:22:38.091Z,0.00
2019-03-12T00:23:48.763Z,0.00
2019-03-12T00:24:59.430Z,0.00
2019-03-12T00:26:10.100Z,0.00
2019-03-12T00:27:20.776Z,0.00
2019-03-12T00:28:31.453Z,0.00
2019-03-12T00:29:42.112Z,0.00
2019-03-12T00:30:52.771Z,0.00
2019-03-12T00:32:03.430Z,0.00
2019-03-12T00:33:14.104Z,0.00
2019-03-12T00:34:24.774Z,0.00
2019-03-12T00:35:35.448Z,0.00
2019-03-12T00:36:46.111Z,0.00
2019-03-12T00:37:56.782Z,0.00
2019-03-12T00:39:07.453Z,0.00
2019-03-12T00:40:18.144Z,0.00
2019-03-12T00:41:28.810Z,0.00
2019-03-12T00:42:39.471Z,0.00
2019-03-12T00:43:50.134Z,0.00
2019-03-12T00:45:01.305Z,0.00
2019-03-12T00:46:12.642Z,0.00
2019-03-12T00:47:23.317Z,0.00
2019-03-12T00:48:33.985Z,0.00
2019-03-12T00:49:44.656Z,0.00
2019-03-12T00:50:55.329Z,0.00
2019-03-12T00:52:06.004Z,0.00
2019-03-12T00:53:16.682Z,0.00
2019-03-12T00:54:27.355Z,0.00
2019-03-12T00:55:38.018Z,0.00
2019-03-12T00:56:48.687Z,0.00
2019-03-12T00:57:59.549Z,0.00
2019-03-12T00:59:10.707Z,0.00
2019-03-12T01:00:21.383Z,0.00
2019-03-12T01:01:33.054Z,0.00
2019-03-12T01:02:43.733Z,0.00
2019-03-12T01:03:54.396Z,0.00
2019-03-12T01:05:05.077Z,0.00
2019-03-12T01:06:15.746Z,0.00
2019-03-12T01:07:26.407Z,0.00
2019-03-12T01:08:37.069Z,0.00
2019-03-12T01:09:47.745Z,0.00
2019-03-12T01:10:58.406Z,0.00
2019-03-12T01:12:09.070Z,0.00
2019-03-12T01:13:19.734Z,0.00
2019-03-12T01:14:30.886Z,0.00
2019-03-12T01:15:41.553Z,0.00
2019-03-12T01:16:52.216Z,0.00
2019-03-12T01:18:03.379Z,0.00
2019-03-12T01:19:14.059Z,0.00
2019-03-12T01:20:24.724Z,0.00
2019-03-12T01:21:35.391Z,0.00
2019-03-12T01:22:47.057Z,0.00
2019-03-12T01:23:57.720Z,0.00
2019-03-12T01:25:08.397Z,0.00
2019-03-12T01:26:19.071Z,0.00
2019-03-12T01:27:29.735Z,0.00
2019-03-12T01:28:40.397Z,0.00
2019-03-12T01:29:51.052Z,0.00
2019-03-12T01:31:01.718Z,0.00
2019-03-12T01:32:12.379Z,0.00
2019-03-12T01:33:23.530Z,0.00
2019-03-12T01:34:34.199Z,0.00
2019-03-12T01:35:44.862Z,0.00
2019-03-12T01:36:55.516Z,0.00
2019-03-12T01:38:06.189Z,0.00
2019-03-12T01:39:16.879Z,0.00
2019-03-12T01:40:27.537Z,0.00
2019-03-12T01:41:39.200Z,0.00
2019-03-12T01:42:52.381Z,0.00
2019-03-12T01:44:00.523Z,0.00
2019-03-12T01:45:11.189Z,0.00
2019-03-12T01:46:21.853Z,0.00
2019-03-12T01:47:32.531Z,0.00
2019-03-12T01:48:43.188Z,0.00
2019-03-12T01:49:53.843Z,0.00
2019-03-12T01:51:04.522Z,0.00
2019-03-12T01:52:15.180Z,0.00
2019-03-12T01:53:25.839Z,0.00
2019-03-12T01:54:36.497Z,0.00
2019-03-12T01:55:47.154Z,0.00
2019-03-12T01:56:57.826Z,0.00
2019-03-12T01:58:08.496Z,0.00
2019-03-12T01:59:19.161Z,0.00
2019-03-12T02:00:29.821Z,0.00
2019-03-12T02:01:40.483Z,0.00
2019-03-12T02:02:51.154Z,0.00
2019-03-12T02:04:01.804Z,0.00
2019-03-12T02:05:12.648Z,0.00
2019-03-12T02:06:23.325Z,0.00
2019-03-12T02:07:33.985Z,0.00
2019-03-12T02:08:44.647Z,0.00
2019-03-12T02:09:56.327Z,0.00
2019-03-12T02:11:06.977Z,0.00
2019-03-12T02:12:17.641Z,0.00
2019-03-12T02:13:28.309Z,0.00
2019-03-12T02:14:38.980Z,0.00
2019-03-12T02:15:49.635Z,0.00
2019-03-12T02:17:00.299Z,0.00
2019-03-12T02:18:10.954Z,0.00
2019-03-12T02:19:21.610Z,0.00
2019-03-12T02:20:32.275Z,0.00
2019-03-12T02:21:42.929Z,0.00
2019-03-12T02:22:53.640Z,0.00
2019-03-12T02:24:04.259Z,0.00
2019-03-12T02:25:14.926Z,0.00
2019-03-12T02:26:25.592Z,0.00
2019-03-12T02:27:36.261Z,0.00
2019-03-12T02:28:46.915Z,0.00
2019-03-12T02:29:57.581Z,0.00
2019-03-12T02:31:09.267Z,0.00
2019-03-12T02:32:19.913Z,0.00
2019-03-12T02:33:30.587Z,0.00
2019-03-12T02:34:41.263Z,0.00
2019-03-12T02:35:51.918Z,0.00
2019-03-12T02:37:02.576Z,0.00
2019-03-12T02:38:13.241Z,0.00
2019-03-12T02:39:23.922Z,0.00
2019-03-12T02:40:34.580Z,0.00
2019-03-12T02:41:45.245Z,0.00
2019-03-12T02:42:55.918Z,0.00
2019-03-12T02:44:06.585Z,0.00
2019-03-12T02:45:17.269Z,0.00
2019-03-12T02:46:27.893Z,0.00
2019-03-12T02:47:38.551Z,0.00
2019-03-12T02:48:49.222Z,0.00
2019-03-12T02:49:59.901Z,0.00
2019-03-12T02:51:10.554Z,0.00
2019-03-12T02:52:21.211Z,0.00
2019-03-12T02:53:31.878Z,0.00
2019-03-12T02:54:42.532Z,0.00
2019-03-12T02:55:53.200Z,0.00
2019-03-12T02:57:03.866Z,0.00
2019-03-12T02:58:14.545Z,0.00
2019-03-12T02:59:25.206Z,0.00
2019-03-12T03:00:35.870Z,0.00
2019-03-12T03:01:46.546Z,0.00
2019-03-12T03:02:57.200Z,0.00
2019-03-12T03:04:07.864Z,0.00
2019-03-12T03:05:18.522Z,0.00
2019-03-12T03:06:29.182Z,0.00
2019-03-12T03:07:39.835Z,0.00
2019-03-12T03:08:51.495Z,0.00
2019-03-12T03:10:02.156Z,0.00
2019-03-12T03:11:12.815Z,0.00
2019-03-12T03:12:23.475Z,0.00
2019-03-12T03:13:34.159Z,0.00
2019-03-12T03:14:44.804Z,0.00
2019-03-12T03:15:55.456Z,0.00
2019-03-12T03:17:06.113Z,0.00
2019-03-12T03:18:16.770Z,0.00
2019-03-12T03:19:28.431Z,0.00
2019-03-12T03:20:39.099Z,0.00
2019-03-12T03:21:49.747Z,0.00
2019-03-12T03:23:00.401Z,0.00
2019-03-12T03:24:11.061Z,0.00
2019-03-12T03:25:21.718Z,0.00
2019-03-12T03:26:32.377Z,0.00
2019-03-12T03:27:43.034Z,0.00
2019-03-12T03:28:53.689Z,0.00
2019-03-12T03:30:04.361Z,0.00
2019-03-12T03:31:15.007Z,0.00
2019-03-12T03:32:25.656Z,0.00
2019-03-12T03:33:36.312Z,0.00
2019-03-12T03:34:46.986Z,0.00
2019-03-12T03:35:57.652Z,0.00
2019-03-12T03:37:08.305Z,0.00
2019-03-12T03:38:18.963Z,0.00
2019-03-12T03:39:30.618Z,0.00
2019-03-12T03:40:41.286Z,0.00
2019-03-12T03:41:51.939Z,0.00
2019-03-12T03:43:02.593Z,0.00
2019-03-12T03:44:13.246Z,0.00
2019-03-12T03:45:23.975Z,0.00
2019-03-12T03:46:34.557Z,0.00
2019-03-12T03:47:45.217Z,0.00
2019-03-12T03:48:55.872Z,0.00
2019-03-12T03:50:06.528Z,0.00
2019-03-12T03:51:17.192Z,0.00
2019-03-12T03:52:27.842Z,0.00
2019-03-12T03:53:38.500Z,0.00
2019-03-12T03:54:49.155Z,0.00
2019-03-12T03:55:59.817Z,0.00
2019-03-12T03:57:10.618Z,0.00
2019-03-12T03:58:21.580Z,0.00
2019-03-12T03:59:32.236Z,0.00
2019-03-12T04:00:42.894Z,0.00
2019-03-12T04:01:53.851Z,0.00
2019-03-12T04:03:04.504Z,0.00
2019-03-12T04:04:15.150Z,0.00
2019-03-12T04:05:26.129Z,0.00
2019-03-12T04:06:36.782Z,0.00
2019-03-12T04:07:47.425Z,0.00
2019-03-12T04:08:58.068Z,0.00
2019-03-12T04:10:08.727Z,0.00
2019-03-12T04:11:19.392Z,0.00
2019-03-12T04:12:30.037Z,0.00
2019-03-12T04:13:40.692Z,0.00
2019-03-12T04:14:51.350Z,0.00
2019-03-12T04:16:02.049Z,0.00
2019-03-12T04:17:12.659Z,0.00
2019-03-12T04:18:23.317Z,0.00
2019-03-12T04:19:33.974Z,0.00
2019-03-12T04:20:44.628Z,0.00
2019-03-12T04:21:55.275Z,0.00
2019-03-12T04:23:05.930Z,0.00
2019-03-12T04:24:16.579Z,0.00
2019-03-12T04:25:27.223Z,0.00
2019-03-12T04:26:37.877Z,0.00
2019-03-12T04:27:48.519Z,0.00
2019-03-12T04:28:59.197Z,0.00
2019-03-12T04:30:09.850Z,0.00
2019-03-12T04:31:20.485Z,0.00
2019-03-12T04:32:31.145Z,0.00
2019-03-12T04:33:41.797Z,0.00
2019-03-12T04:34:52.441Z,0.00
2019-03-12T04:36:04.093Z,0.00
2019-03-12T04:37:14.766Z,0.00
2019-03-12T04:38:26.408Z,0.00
2019-03-12T04:39:37.053Z,0.00
2019-03-12T04:40:47.695Z,0.00
2019-03-12T04:41:58.363Z,0.00
2019-03-12T04:43:09.007Z,0.00
2019-03-12T04:44:19.674Z,0.00
2019-03-12T04:45:30.316Z,0.00
2019-03-12T04:46:40.969Z,0.00
2019-03-12T04:47:51.627Z,0.00
2019-03-12T04:49:02.271Z,0.00
2019-03-12T04:50:12.914Z,0.00
2019-03-12T04:51:23.557Z,0.00
2019-03-12T04:52:34.217Z,0.00
2019-03-12T04:53:44.869Z,0.00
2019-03-12T04:54:55.524Z,0.00
2019-03-12T04:56:06.182Z,0.00
2019-03-12T04:57:16.837Z,0.00
2019-03-12T04:58:28.628Z,0.00
2019-03-12T04:59:39.282Z,0.00
2019-03-12T05:00:49.937Z,0.00
2019-03-12T05:02:00.597Z,0.00
2019-03-12T05:03:11.247Z,0.00
2019-03-12T05:04:21.904Z,0.00
2019-03-12T05:05:32.558Z,0.00
2019-03-12T05:06:43.217Z,0.00
2019-03-12T05:07:53.873Z,0.00
2019-03-12T05:09:04.529Z,0.00
2019-03-12T05:10:15.180Z,0.00
2019-03-12T05:11:25.824Z,0.00
2019-03-12T05:12:36.653Z,0.00
2019-03-12T05:13:47.305Z,0.00
2019-03-12T05:14:57.951Z,4.00
2019-03-12T05:16:08.596Z,0.00
2019-03-12T05:17:19.247Z,0.00
2019-03-12T05:18:29.902Z,4.00
2019-03-12T05:19:40.553Z,4.00
2019-03-12T05:20:51.207Z,4.00
2019-03-12T05:22:01.860Z,4.00
2019-03-12T05:23:12.517Z,8.00
2019-03-12T05:24:23.171Z,8.00
2019-03-12T05:25:33.823Z,8.00
2019-03-12T05:26:44.635Z,16.00
2019-03-12T05:27:55.283Z,16.00
2019-03-12T05:29:05.936Z,20.00
2019-03-12T05:30:16.581Z,28.00
2019-03-12T05:31:27.230Z,32.00
2019-03-12T05:32:37.882Z,40.00
2019-03-12T05:33:48.537Z,48.00
2019-03-12T05:34:59.188Z,60.00
2019-03-12T05:36:09.842Z,72.00
2019-03-12T05:37:20.644Z,84.00
2019-03-12T05:38:31.792Z,104.00
2019-03-12T05:39:42.448Z,120.00
2019-03-12T05:40:53.087Z,148.00
2019-03-12T05:42:03.740Z,172.00
2019-03-12T05:43:14.397Z,196.00
2019-03-12T05:44:25.059Z,224.00
2019-03-12T05:45:35.702Z,256.00
2019-03-12T05:46:46.349Z,280.00
2019-03-12T05:47:56.992Z,308.00
2019-03-12T05:49:07.646Z,340.00
2019-03-12T05:50:18.289Z,372.00
2019-03-12T05:51:28.939Z,404.00
2019-03-12T05:52:39.594Z,444.00
2019-03-12T05:53:50.242Z,484.00
2019-03-12T05:55:00.901Z,528.00
2019-03-12T05:56:11.557Z,576.00
2019-03-12T05:57:22.201Z,632.00
2019-03-12T05:58:32.855Z,684.00
2019-03-12T05:59:43.508Z,732.00
2019-03-12T06:00:54.153Z,792.00
2019-03-12T06:02:04.812Z,864.00
2019-03-12T06:03:15.464Z,940.00
2019-03-12T06:04:26.129Z,1028.00
2019-03-12T06:05:36.792Z,1116.00
2019-03-12T06:06:47.445Z,1204.00
2019-03-12T06:07:58.100Z,1304.00
2019-03-12T06:09:08.754Z,1412.00
2019-03-12T06:10:19.418Z,1520.00
2019-03-12T06:11:30.058Z,1628.00
2019-03-12T06:12:40.734Z,1728.00
2019-03-12T06:13:51.378Z,1824.00
2019-03-12T06:15:02.044Z,1920.00
2019-03-12T06:16:12.705Z,2004.00
2019-03-12T06:17:23.362Z,2072.00
2019-03-12T06:18:34.018Z,2136.00
2019-03-12T06:19:44.678Z,2216.00
2019-03-12T06:20:55.347Z,2260.00
2019-03-12T06:22:05.999Z,2288.00
2019-03-12T06:23:16.758Z,2352.00
2019-03-12T06:24:28.802Z,2400.00
2019-03-12T06:25:39.955Z,2456.00
2019-03-12T06:26:50.612Z,2512.00
2019-03-12T06:28:01.268Z,2560.00
2019-03-12T06:29:11.926Z,2576.00
2019-03-12T06:30:25.746Z,2596.00
2019-03-12T06:31:33.278Z,2612.00
2019-03-12T06:32:43.943Z,2568.00
2019-03-12T06:33:54.609Z,2544.00
2019-03-12T06:35:05.267Z,2512.00
2019-03-12T06:36:15.947Z,2452.00
2019-03-12T06:37:26.621Z,2444.00
2019-03-12T06:38:37.282Z,2472.00
2019-03-12T06:39:47.944Z,2544.00
2019-03-12T06:40:58.634Z,2624.00
2019-03-12T06:42:09.302Z,2744.00
2019-03-12T06:43:19.966Z,2844.00
2019-03-12T06:44:30.633Z,2900.00
2019-03-12T06:45:41.304Z,2944.00
2019-03-12T06:46:51.968Z,2996.00
2019-03-12T06:48:02.631Z,3084.00
2019-03-12T06:49:13.298Z,3288.00
2019-03-12T06:50:23.960Z,3536.00
2019-03-12T06:51:35.121Z,3872.00
2019-03-12T06:52:45.794Z,4092.00
2019-03-12T06:53:56.621Z,4276.00
2019-03-12T06:55:07.282Z,4376.00
2019-03-12T06:56:17.962Z,4352.00
2019-03-12T06:57:28.645Z,4308.00
2019-03-12T06:58:39.314Z,4384.00
2019-03-12T06:59:50.990Z,4564.00
2019-03-12T07:01:02.667Z,4328.00
2019-03-12T07:02:13.349Z,4204.00
2019-03-12T07:03:24.030Z,4236.00
2019-03-12T07:04:34.707Z,4260.00
2019-03-12T07:05:45.358Z,4216.00
2019-03-12T07:06:56.059Z,4172.00
2019-03-12T07:08:06.714Z,4172.00
2019-03-12T07:09:17.390Z,4220.00
2019-03-12T07:10:28.070Z,4264.00
2019-03-12T07:11:38.755Z,4268.00
2019-03-12T07:12:49.908Z,4192.00
2019-03-12T07:14:01.581Z,4096.00
2019-03-12T07:15:12.249Z,4104.00
2019-03-12T07:16:22.919Z,4124.00
2019-03-12T07:17:33.605Z,4076.00
2019-03-12T07:18:45.283Z,4252.00
2019-03-12T07:19:55.986Z,4388.00
2019-03-12T07:21:06.654Z,4440.00
2019-03-12T07:22:17.336Z,4528.00
2019-03-12T07:23:28.016Z,4664.00
2019-03-12T07:24:38.699Z,4804.00
2019-03-12T07:25:50.784Z,4948.00
2019-03-12T07:27:00.041Z,5100.00
2019-03-12T07:28:10.727Z,5268.00
2019-03-12T07:29:21.402Z,5384.00
2019-03-12T07:30:32.078Z,5348.00
2019-03-12T07:31:42.758Z,5352.00
2019-03-12T07:32:56.136Z,5316.00
2019-03-12T07:34:04.122Z,5272.00
2019-03-12T07:35:15.803Z,5248.00
2019-03-12T07:36:26.489Z,5168.00
2019-03-12T07:37:37.175Z,5088.00
2019-03-12T07:38:48.854Z,5020.00
2019-03-12T07:39:59.536Z,4964.00
2019-03-12T07:41:22.950Z,4848.00
2019-03-12T07:42:20.914Z,4728.00
2019-03-12T07:43:31.605Z,4676.00
2019-03-12T07:44:42.299Z,4600.00
2019-03-12T07:45:52.986Z,4496.00
2019-03-12T07:47:03.669Z,4512.00
2019-03-12T07:48:14.360Z,4552.00
2019-03-12T07:49:25.339Z,4712.00
2019-03-12T07:50:36.031Z,4904.00
2019-03-12T07:51:46.715Z,5092.00
2019-03-12T07:52:57.410Z,5316.00
2019-03-12T07:54:08.111Z,5484.00
2019-03-12T07:55:18.787Z,5672.00
2019-03-12T07:56:29.478Z,5840.00
2019-03-12T07:57:40.165Z,6012.00
2019-03-12T07:58:50.858Z,6136.00
2019-03-12T08:00:01.554Z,6216.00
2019-03-12T08:01:12.252Z,6244.00
2019-03-12T08:02:22.933Z,6192.00
2019-03-12T08:03:33.631Z,6080.00
2019-03-12T08:04:44.329Z,5900.00
2019-03-12T08:05:55.025Z,5720.00
2019-03-12T08:07:05.717Z,5500.00
2019-03-12T08:08:16.900Z,5340.00
2019-03-12T08:09:27.604Z,5232.00
2019-03-12T08:10:38.303Z,5176.00
2019-03-12T08:11:48.990Z,5192.00
2019-03-12T08:12:59.699Z,5212.00
2019-03-12T08:14:10.399Z,5232.00
2019-03-12T08:15:23.314Z,5288.00
2019-03-12T08:16:32.785Z,5380.00
2019-03-12T08:17:43.484Z,5472.00
2019-03-12T08:18:54.184Z,5560.00
2019-03-12T08:20:04.880Z,5628.00
2019-03-12T08:21:22.253Z,5736.00
2019-03-12T08:22:26.280Z,5832.00
2019-03-12T08:23:36.995Z,5916.00
2019-03-12T08:24:47.704Z,5992.00
2019-03-12T08:25:58.425Z,6048.00
2019-03-12T08:27:09.119Z,5992.00
2019-03-12T08:28:19.835Z,5900.00
2019-03-12T08:29:30.542Z,5888.00
2019-03-12T08:30:41.235Z,5876.00
2019-03-12T08:31:51.935Z,5916.00
2019-03-12T08:33:02.641Z,6012.00
2019-03-12T08:34:13.836Z,6088.00
2019-03-12T08:35:24.542Z,6168.00
2019-03-12T08:36:35.239Z,6236.00
2019-03-12T08:37:45.950Z,6248.00
2019-03-12T08:38:57.650Z,6240.00
2019-03-12T08:40:08.368Z,6228.00
2019-03-12T08:41:19.080Z,6284.00
2019-03-12T08:42:30.276Z,6392.00
2019-03-12T08:43:40.983Z,6620.00
2019-03-12T08:44:51.696Z,6964.00
2019-03-12T08:46:02.423Z,7412.00
2019-03-12T08:47:13.620Z,7948.00
2019-03-12T08:48:24.330Z,8316.00
2019-03-12T08:49:35.065Z,8572.00
2019-03-12T08:50:45.766Z,8824.00
2019-03-12T08:51:56.484Z,9192.00
2019-03-12T08:53:07.195Z,9664.00
2019-03-12T08:54:17.981Z,10008.00
2019-03-12T08:55:28.642Z,10220.00
2019-03-12T08:56:39.368Z,10016.00
2019-03-12T08:57:50.089Z,9704.00
2019-03-12T08:59:00.814Z,9808.00
2019-03-12T09:00:11.548Z,10240.00
2019-03-12T09:01:22.280Z,10908.00
2019-03-12T09:02:33.016Z,11608.00
2019-03-12T09:03:43.736Z,12444.00
2019-03-12T09:04:54.979Z,13536.00
2019-03-12T09:06:05.749Z,14484.00
2019-03-12T09:07:16.645Z,15116.00
2019-03-12T09:08:27.381Z,15784.00
2019-03-12T09:09:38.130Z,17320.00
2019-03-12T09:10:48.890Z,18368.00
2019-03-12T09:11:59.639Z,19232.00
2019-03-12T09:13:10.396Z,19200.00
2019-03-12T09:14:21.154Z,18912.00
2019-03-12T09:15:31.928Z,18208.00
2019-03-12T09:16:42.692Z,17492.00
2019-03-12T09:17:53.958Z,17608.00
2019-03-12T09:19:04.728Z,17824.00
2019-03-12T09:20:15.505Z,18656.00
2019-03-12T09:21:26.299Z,19904.00
2019-03-12T09:22:37.086Z,22016.00
2019-03-12T09:23:47.869Z,22144.00
2019-03-12T09:24:58.660Z,21312.00
2019-03-12T09:26:09.463Z,20704.00
2019-03-12T09:27:20.263Z,20544.00
2019-03-12T09:28:31.066Z,21248.00
2019-03-12T09:29:41.870Z,21632.00
2019-03-12T09:30:52.683Z,21696.00
2019-03-12T09:32:03.493Z,21824.00
2019-03-12T09:33:14.303Z,21344.00
2019-03-12T09:34:25.111Z,20864.00
2019-03-12T09:35:35.929Z,20192.00
2019-03-12T09:36:46.745Z,19936.00
2019-03-12T09:37:57.562Z,19424.00
2019-03-12T09:39:08.868Z,19296.00
2019-03-12T09:40:19.683Z,19552.00
2019-03-12T09:41:30.506Z,20800.00
2019-03-12T09:42:41.828Z,22880.00
2019-03-12T09:43:52.645Z,22848.00
2019-03-12T09:45:03.487Z,24480.00
2019-03-12T09:46:14.329Z,26560.00
2019-03-12T09:47:26.157Z,27456.00
2019-03-12T09:48:36.987Z,44384.00
2019-03-12T09:49:47.835Z,30048.00
2019-03-12T09:50:58.689Z,31904.00
2019-03-12T09:52:09.550Z,41568.00
2019-03-12T09:53:20.413Z,49856.00
2019-03-12T09:54:31.282Z,47648.00
2019-03-12T09:55:42.676Z,44768.00
2019-03-12T09:56:53.589Z,45728.00
2019-03-12T09:58:04.498Z,44672.00
2019-03-12T09:59:15.426Z,48672.00
2019-03-12T10:00:26.369Z,50816.00
2019-03-12T10:01:37.328Z,53696.00
2019-03-12T10:02:48.293Z,52064.00
2019-03-12T10:03:59.275Z,46272.00
2019-03-12T10:05:10.271Z,50880.00
2019-03-12T10:06:21.287Z,53568.00
2019-03-12T10:07:32.312Z,55744.00
2019-03-12T10:08:43.341Z,56512.00
2019-03-12T10:09:54.393Z,58688.00
2019-03-12T10:11:05.461Z,61472.00
2019-03-12T10:12:16.542Z,59872.00
2019-03-12T10:13:27.644Z,61728.00
2019-03-12T10:14:38.753Z,63616.00
2019-03-12T10:15:49.883Z,54368.00
2019-03-12T10:17:01.014Z,55616.00
2019-03-12T10:18:12.197Z,37184.00
2019-03-12T10:19:24.768Z,34752.00
2019-03-12T10:20:35.903Z,37408.00
2019-03-12T10:21:47.043Z,49408.00
2019-03-12T10:22:58.170Z,56832.00
2019-03-12T10:24:09.792Z,47296.00
2019-03-12T10:25:20.916Z,46656.00
2019-03-12T10:26:32.046Z,40896.00
2019-03-12T10:27:43.184Z,40352.00
2019-03-12T10:28:54.304Z,35872.00
2019-03-12T10:30:05.430Z,23776.00
2019-03-12T10:31:16.664Z,23648.00
2019-03-12T10:32:27.764Z,31200.00
2019-03-12T10:33:38.855Z,35712.00
2019-03-12T10:34:50.432Z,43264.00
2019-03-12T10:36:01.570Z,67488.00
2019-03-12T10:37:16.245Z,60288.00
2019-03-12T10:38:23.708Z,52544.00
2019-03-12T10:39:35.800Z,25888.00
2019-03-12T10:40:46.909Z,48864.00
2019-03-12T10:41:59.496Z,28960.00
2019-03-12T10:43:10.595Z,34816.00
2019-03-12T10:44:22.686Z,32096.00
2019-03-12T10:45:34.770Z,38880.00
2019-03-12T10:46:45.849Z,45152.00
2019-03-12T10:47:56.937Z,61056.00
2019-03-12T10:49:08.618Z,62464.00
2019-03-12T10:50:19.708Z,51040.00
2019-03-12T10:51:30.824Z,52160.00
2019-03-12T10:52:41.943Z,60000.00
2019-03-12T10:53:53.072Z,56448.00
2019-03-12T10:55:12.827Z,53984.00
2019-03-12T10:56:15.851Z,41376.00
2019-03-12T10:57:27.293Z,36672.00
2019-03-12T10:58:38.446Z,33856.00
2019-03-12T10:59:50.649Z,31232.00
2019-03-12T11:01:01.802Z,29376.00
2019-03-12T11:02:12.926Z,28032.00
2019-03-12T11:03:24.059Z,27104.00
2019-03-12T11:04:35.180Z,26560.00
2019-03-12T11:05:46.535Z,26208.00
2019-03-12T11:06:57.396Z,26624.00
2019-03-12T11:08:08.978Z,27232.00
2019-03-12T11:09:20.058Z,27904.00
2019-03-12T11:10:31.130Z,27168.00
2019-03-12T11:11:42.201Z,26208.00
2019-03-12T11:12:53.259Z,25216.00
2019-03-12T11:14:04.426Z,24864.00
2019-03-12T11:15:15.474Z,25024.00
2019-03-12T11:16:26.522Z,25664.00
2019-03-12T11:17:49.002Z,26880.00
2019-03-12T11:18:48.610Z,28608.00
2019-03-12T11:19:59.655Z,29760.00
2019-03-12T11:21:10.687Z,30368.00
2019-03-12T11:22:21.707Z,31040.00
2019-03-12T11:23:32.740Z,31456.00
2019-03-12T11:24:43.770Z,31584.00
2019-03-12T11:25:54.787Z,31392.00
2019-03-12T11:27:05.815Z,29760.00
2019-03-12T11:28:16.834Z,28352.00
2019-03-12T11:29:27.864Z,26976.00
2019-03-12T11:30:39.382Z,25568.00
2019-03-12T11:31:50.902Z,24544.00
2019-03-12T11:33:01.930Z,23200.00
2019-03-12T11:34:12.937Z,22528.00
2019-03-12T11:35:23.948Z,22176.00
2019-03-12T11:36:34.957Z,22048.00
2019-03-12T11:37:45.987Z,22048.00
2019-03-12T11:38:56.973Z,22112.00
2019-03-12T11:40:07.992Z,22048.00
2019-03-12T11:41:19.136Z,21824.00
2019-03-12T11:42:29.971Z,21312.00
2019-03-12T11:43:40.977Z,20864.00
2019-03-12T11:44:52.136Z,20352.00
2019-03-12T11:46:02.941Z,20160.00
2019-03-12T11:47:14.923Z,20000.00
2019-03-12T11:48:25.920Z,19808.00
2019-03-12T11:49:37.392Z,19360.00
2019-03-12T11:50:48.367Z,18912.00
2019-03-12T11:52:00.336Z,18784.00
2019-03-12T11:53:11.332Z,19264.00
2019-03-12T11:54:22.303Z,20064.00
2019-03-12T11:55:33.273Z,20832.00
2019-03-12T11:56:44.706Z,21088.00
2019-03-12T11:57:55.673Z,20896.00
2019-03-12T11:59:06.643Z,19968.00
2019-03-12T12:00:19.439Z,18784.00
2019-03-12T12:01:29.561Z,17888.00
2019-03-12T12:02:40.526Z,17140.00
2019-03-12T12:03:51.484Z,17400.00
2019-03-12T12:05:02.441Z,18688.00
2019-03-12T12:06:13.444Z,20128.00
2019-03-12T12:07:24.350Z,21024.00
2019-03-12T12:08:35.307Z,21088.00
2019-03-12T12:09:46.273Z,20384.00
2019-03-12T12:10:57.215Z,19744.00
2019-03-12T12:12:08.676Z,19488.00
2019-03-12T12:13:20.113Z,19712.00
2019-03-12T12:14:31.634Z,20000.00
2019-03-12T12:15:42.587Z,19872.00
2019-03-12T12:16:53.537Z,19424.00
2019-03-12T12:18:06.005Z,19168.00
2019-03-12T12:19:17.451Z,18688.00
2019-03-12T12:20:30.366Z,18144.00
2019-03-12T12:21:39.348Z,17212.00
2019-03-12T12:22:50.297Z,16336.00
2019-03-12T12:24:01.234Z,15652.00
2019-03-12T12:25:12.187Z,15292.00
2019-03-12T12:26:23.136Z,15428.00
2019-03-12T12:27:34.077Z,15852.00
2019-03-12T12:28:45.013Z,16300.00
2019-03-12T12:29:55.957Z,16892.00
2019-03-12T12:31:07.380Z,17888.00
2019-03-12T12:32:18.314Z,18496.00
2019-03-12T12:33:29.239Z,18816.00
2019-03-12T12:34:40.679Z,18848.00
2019-03-12T12:35:51.609Z,18336.00
2019-03-12T12:37:03.039Z,17824.00
2019-03-12T12:38:13.972Z,18336.00
2019-03-12T12:39:24.915Z,19104.00
2019-03-12T12:40:36.344Z,19904.00
2019-03-12T12:41:47.275Z,20832.00
2019-03-12T12:42:58.211Z,20768.00
2019-03-12T12:44:09.661Z,21152.00
2019-03-12T12:45:20.602Z,21376.00
2019-03-12T12:46:31.541Z,21792.00
2019-03-12T12:47:42.627Z,22528.00
2019-03-12T12:48:53.579Z,23040.00
2019-03-12T12:50:04.509Z,24192.00
2019-03-12T12:51:15.462Z,23264.00
2019-03-12T12:52:26.421Z,23648.00
2019-03-12T12:53:37.869Z,28224.00
2019-03-12T12:54:50.316Z,31840.00
2019-03-12T12:56:01.282Z,26112.00
2019-03-12T12:57:12.263Z,24544.00
2019-03-12T12:58:23.209Z,24192.00
2019-03-12T12:59:34.180Z,23552.00
2019-03-12T13:00:45.642Z,22048.00
2019-03-12T13:01:56.614Z,20320.00
2019-03-12T13:03:07.590Z,19328.00
2019-03-12T13:04:18.564Z,18848.00
2019-03-12T13:05:29.546Z,19104.00
2019-03-12T13:06:40.507Z,19712.00
2019-03-12T13:07:51.475Z,20320.00
2019-03-12T13:09:02.426Z,20640.00
2019-03-12T13:10:13.386Z,20768.00
2019-03-12T13:11:24.350Z,20992.00
2019-03-12T13:12:35.307Z,19936.00
2019-03-12T13:13:46.266Z,19232.00
2019-03-12T13:14:57.217Z,17856.00
2019-03-12T13:16:08.175Z,17236.00
2019-03-12T13:17:19.128Z,16884.00
2019-03-12T13:18:30.621Z,16616.00
2019-03-12T13:19:42.112Z,16768.00
2019-03-12T13:20:53.508Z,17200.00
2019-03-12T13:22:04.462Z,17856.00
2019-03-12T13:23:15.911Z,18528.00
2019-03-12T13:24:26.855Z,19488.00
2019-03-12T13:25:37.801Z,20800.00
2019-03-12T13:26:49.749Z,20960.00
2019-03-12T13:28:00.697Z,20448.00
2019-03-12T13:29:11.632Z,19008.00
2019-03-12T13:30:22.581Z,17164.00
2019-03-12T13:31:33.528Z,15944.00
2019-03-12T13:32:44.632Z,15276.00
2019-03-12T13:33:56.071Z,15092.00
2019-03-12T13:35:08.004Z,15032.00
2019-03-12T13:36:18.952Z,16072.00
2019-03-12T13:37:29.899Z,17984.00
2019-03-12T13:38:46.609Z,20128.00
2019-03-12T13:39:53.292Z,23008.00
2019-03-12T13:41:04.265Z,27296.00
2019-03-12T13:42:15.125Z,25856.00
2019-03-12T13:43:26.060Z,34880.00
2019-03-12T13:44:37.077Z,46144.00
2019-03-12T13:45:47.971Z,32896.00
2019-03-12T13:46:58.954Z,26912.00
2019-03-12T13:48:09.914Z,24832.00
2019-03-12T13:49:21.080Z,23072.00
2019-03-12T13:50:31.851Z,21440.00
2019-03-12T13:51:42.843Z,20128.00
2019-03-12T13:52:53.821Z,19616.00
2019-03-12T13:54:05.823Z,19072.00
2019-03-12T13:55:16.816Z,17728.00
2019-03-12T13:56:27.800Z,16496.00
2019-03-12T13:57:38.688Z,16560.00
2019-03-12T13:58:49.646Z,19104.00
2019-03-12T14:00:00.601Z,20960.00
2019-03-12T14:01:12.049Z,21824.00
2019-03-12T14:02:23.013Z,25408.00
2019-03-12T14:03:34.004Z,32704.00
2019-03-12T14:04:44.970Z,24128.00
2019-03-12T14:05:55.942Z,26400.00
2019-03-12T14:07:06.918Z,28800.00
2019-03-12T14:08:17.908Z,24192.00
2019-03-12T14:09:29.878Z,19744.00
2019-03-12T14:10:40.856Z,19232.00
2019-03-12T14:11:51.833Z,20096.00
2019-03-12T14:13:02.819Z,22432.00
2019-03-12T14:14:13.794Z,25696.00
2019-03-12T14:15:24.770Z,26560.00
2019-03-12T14:16:35.764Z,25920.00
2019-03-12T14:17:47.247Z,23456.00
2019-03-12T14:18:58.230Z,20384.00
2019-03-12T14:20:09.214Z,19200.00
2019-03-12T14:21:20.184Z,18688.00
2019-03-12T14:22:31.172Z,18304.00
2019-03-12T14:23:42.633Z,18080.00
2019-03-12T14:24:53.611Z,19936.00
2019-03-12T14:26:05.088Z,20448.00
2019-03-12T14:27:16.077Z,19872.00
2019-03-12T14:28:27.050Z,19616.00
2019-03-12T14:29:38.517Z,18624.00
2019-03-12T14:30:50.625Z,18592.00
2019-03-12T14:32:01.608Z,18688.00
2019-03-12T14:33:12.575Z,24352.00
2019-03-12T14:34:26.726Z,28416.00
2019-03-12T14:35:34.512Z,29728.00
2019-03-12T14:36:45.479Z,29408.00
2019-03-12T14:37:56.634Z,27904.00